Time;durP1;ratioP1;P1;durP2;ratioP2;P2;SDS_P1;SDS_P2;PMS_P1;PMS_P2;Temp;Humidity;BMP_temperature;BMP_pressure;BME280_temperature;BME280_humidity;BME280_pressure;Samples;Min_cycle;Max_cycle;Signal;HPM_P1;HPM_P2
2023/08/22 00:00:54;;;;;;;;;;;23.30;99.90;;;;;;5101318;28;20230;-77
2023/08/22 00:03:21;;;;;;;;;;;23.20;99.90;;;;;;5101188;28;19920;-76
2023/08/22 00:05:47;;;;;;;;;;;23.10;99.90;;;;;;5110307;28;20269;-76
2023/08/22 00:08:14;;;;;;;;;;;23.10;99.90;;;;;;5101517;28;19959;-78
2023/08/22 00:10:41;;;;;;;;;;;23.10;99.90;;;;;;5099474;28;19951;-77
2023/08/22 00:13:08;;;;;;;;;;;23.10;99.90;;;;;;5100779;28;19952;-77
2023/08/22 00:15:36;;;;;;;;;;;23.10;99.90;;;;;;5101200;28;19987;-77
2023/08/22 00:18:03;;;;;;;;;;;23.10;99.90;;;;;;5100965;28;20229;-76
2023/08/22 00:20:29;;;;;;;;;;;23.00;99.90;;;;;;5101516;28;19955;-76
2023/08/22 00:22:56;;;;;;;;;;;23.00;99.90;;;;;;5100596;28;19991;-77
2023/08/22 00:25:23;;;;;;;;;;;23.00;99.90;;;;;;5101109;28;19991;-77
2023/08/22 00:27:49;;;;;;;;;;;22.90;99.90;;;;;;5101057;28;19970;-77
2023/08/22 00:30:16;;;;;;;;;;;22.80;99.90;;;;;;5100818;28;19995;-77
2023/08/22 00:32:44;;;;;;;;;;;22.70;99.90;;;;;;5100761;28;19920;-76
2023/08/22 00:35:11;;;;;;;;;;;22.70;99.90;;;;;;5100990;28;20162;-77
2023/08/22 00:37:37;;;;;;;;;;;22.70;99.90;;;;;;5100836;28;19991;-78
2023/08/22 00:40:05;;;;;;;;;;;22.70;99.90;;;;;;5100910;28;19921;-77
2023/08/22 00:42:31;;;;;;;;;;;22.70;99.90;;;;;;5100127;28;19955;-77
2023/08/22 00:44:58;;;;;;;;;;;22.70;99.90;;;;;;5100128;28;19926;-77
2023/08/22 00:47:25;;;;;;;;;;;22.70;99.90;;;;;;5101110;28;20003;-78
2023/08/22 00:49:53;;;;;;;;;;;22.70;99.90;;;;;;5100650;28;19920;-77
2023/08/22 00:52:20;;;;;;;;;;;22.60;99.90;;;;;;5099913;28;19992;-76
2023/08/22 00:54:47;;;;;;;;;;;22.60;99.90;;;;;;5100645;28;19921;-76
2023/08/22 00:57:14;;;;;;;;;;;22.60;99.90;;;;;;5113736;28;19924;-76
2023/08/22 00:59:41;;;;;;;;;;;22.60;99.90;;;;;;5120906;28;19920;-76
2023/08/22 01:02:08;;;;;;;;;;;22.70;99.90;;;;;;5120303;28;19951;-77
2023/08/22 01:04:34;;;;;;;;;;;22.60;99.90;;;;;;5120224;28;19920;-76
2023/08/22 01:07:08;;;;;;;;;;;22.60;99.90;;;;;;5120522;28;19967;-77
2023/08/22 01:09:36;;;;;;;;;;;22.60;99.90;;;;;;5108454;28;19927;-76
2023/08/22 01:12:06;;;;;;;;;;;22.50;99.90;;;;;;5106148;28;19957;-75
2023/08/22 01:14:35;;;;;;;;;;;22.40;99.90;;;;;;5105150;28;19951;-77
2023/08/22 01:17:02;;;;;;;;;;;22.40;99.90;;;;;;5106872;28;19987;-76
2023/08/22 01:19:29;;;;;;;;;;;22.40;99.90;;;;;;5106929;28;19920;-76
2023/08/22 01:21:57;;;;;;;;;;;22.40;99.90;;;;;;5106365;28;19920;-77
2023/08/22 01:24:41;;;;;;;;;;;22.40;99.90;;;;;;5104427;28;19948;-76
2023/08/22 01:27:10;;;;;;;;;;;22.30;99.90;;;;;;5106678;28;19987;-75
2023/08/22 01:29:39;;;;;;;;;;;22.30;99.90;;;;;;5106736;28;19920;-76
2023/08/22 01:32:10;;;;;;;;;;;22.30;99.90;;;;;;5106145;28;19920;-75
2023/08/22 01:34:39;;;;;;;;;;;22.30;99.90;;;;;;5106813;28;19955;-75
2023/08/22 01:37:09;;;;;;;;;;;22.30;99.90;;;;;;5106509;28;19995;-75
2023/08/22 01:39:37;;;;;;;;;;;22.30;99.90;;;;;;5106479;28;20165;-75
2023/08/22 01:42:04;;;;;;;;;;;22.30;99.90;;;;;;5106252;28;19988;-75
2023/08/22 01:44:30;;;;;;;;;;;22.30;99.90;;;;;;5106293;28;19951;-75
2023/08/22 01:46:57;;;;;;;;;;;22.30;99.90;;;;;;5106330;28;19952;-75
2023/08/22 01:49:24;;;;;;;;;;;22.30;99.90;;;;;;5106117;28;19926;-74
2023/08/22 01:51:50;;;;;;;;;;;22.30;99.90;;;;;;5106085;28;19920;-74
2023/08/22 01:54:18;;;;;;;;;;;22.30;99.90;;;;;;5105742;28;19963;-75
2023/08/22 01:56:45;;;;;;;;;;;22.20;99.90;;;;;;5105844;28;20050;-75
2023/08/22 01:59:12;;;;;;;;;;;22.20;99.90;;;;;;5106153;28;19942;-75
2023/08/22 02:01:38;;;;;;;;;;;22.20;99.90;;;;;;5105707;28;20215;-76
2023/08/22 02:04:05;;;;;;;;;;;22.20;99.90;;;;;;5105731;28;20007;-76
2023/08/22 02:06:32;;;;;;;;;;;22.20;99.90;;;;;;5105992;28;19987;-75
2023/08/22 02:08:58;;;;;;;;;;;22.20;99.90;;;;;;5105947;28;19947;-76
2023/08/22 02:11:26;;;;;;;;;;;22.10;99.90;;;;;;5105642;28;19995;-76
2023/08/22 02:13:53;;;;;;;;;;;22.10;99.90;;;;;;5104945;28;20022;-75
2023/08/22 02:16:20;;;;;;;;;;;22.10;99.90;;;;;;5105729;28;20226;-75
2023/08/22 02:18:47;;;;;;;;;;;22.10;99.90;;;;;;5105617;28;19920;-76
2023/08/22 02:21:13;;;;;;;;;;;22.00;99.90;;;;;;5104769;28;20186;-76
2023/08/22 02:23:51;;;;;;;;;;;22.00;99.90;;;;;;5105029;28;19958;-76
2023/08/22 02:26:18;;;;;;;;;;;22.00;99.90;;;;;;5105094;28;19992;-76
2023/08/22 02:28:46;;;;;;;;;;;22.00;99.90;;;;;;5105643;28;19920;-76
2023/08/22 02:31:12;;;;;;;;;;;22.00;99.90;;;;;;5105563;28;19960;-75
2023/08/22 02:33:39;;;;;;;;;;;22.00;99.90;;;;;;5104709;28;20225;-76
2023/08/22 02:36:06;;;;;;;;;;;22.00;99.90;;;;;;5105364;28;19986;-75
2023/08/22 02:38:32;;;;;;;;;;;21.90;99.90;;;;;;5105613;28;19951;-75
2023/08/22 02:40:59;;;;;;;;;;;21.90;99.90;;;;;;5104966;28;20225;-77
2023/08/22 02:43:26;;;;;;;;;;;21.90;99.90;;;;;;5104424;28;19920;-76
2023/08/22 02:45:54;;;;;;;;;;;21.90;99.90;;;;;;5104817;28;19920;-76
2023/08/22 02:48:20;;;;;;;;;;;21.80;99.90;;;;;;5105244;28;19951;-77
2023/08/22 02:50:49;;;;;;;;;;;21.80;99.90;;;;;;5099931;28;20115;-76
2023/08/22 02:53:15;;;;;;;;;;;21.70;99.90;;;;;;5084017;28;20227;-76
2023/08/22 02:55:42;;;;;;;;;;;21.70;99.90;;;;;;5084496;28;19987;-76
2023/08/22 02:58:09;;;;;;;;;;;21.60;99.90;;;;;;5091275;28;19979;-76
2023/08/22 03:00:36;;;;;;;;;;;21.60;99.90;;;;;;5104943;28;19986;-77
2023/08/22 03:03:04;;;;;;;;;;;21.60;99.90;;;;;;5103975;28;20266;-77
2023/08/22 03:05:31;;;;;;;;;;;21.60;99.90;;;;;;5104436;28;20204;-76
2023/08/22 03:07:57;;;;;;;;;;;21.60;99.90;;;;;;5104533;28;19987;-77
2023/08/22 03:10:24;;;;;;;;;;;21.60;99.90;;;;;;5105008;28;19987;-76
2023/08/22 03:12:51;;;;;;;;;;;21.60;99.90;;;;;;5106709;28;19983;-76
2023/08/22 03:15:24;;;;;;;;;;;21.60;99.90;;;;;;5102551;28;19920;-76
2023/08/22 03:17:51;;;;;;;;;;;21.50;99.90;;;;;;5104318;28;19995;-76
2023/08/22 03:20:19;;;;;;;;;;;21.60;99.90;;;;;;5104621;28;19951;-77
2023/08/22 03:22:45;;;;;;;;;;;21.50;99.90;;;;;;5104033;28;19992;-76
2023/08/22 03:25:12;;;;;;;;;;;21.50;99.90;;;;;;5104557;28;19920;-76
2023/08/22 03:27:39;;;;;;;;;;;21.50;99.90;;;;;;5103857;28;19991;-76
2023/08/22 03:30:06;;;;;;;;;;;21.50;99.90;;;;;;5104275;28;19926;-77
2023/08/22 03:32:33;;;;;;;;;;;21.50;99.90;;;;;;5103353;28;19991;-77
2023/08/22 03:34:59;;;;;;;;;;;21.40;99.90;;;;;;5104137;28;19920;-76
2023/08/22 03:37:27;;;;;;;;;;;21.40;99.90;;;;;;5104177;28;19995;-75
2023/08/22 03:39:54;;;;;;;;;;;21.40;99.90;;;;;;5084107;28;19952;-76
2023/08/22 03:42:21;;;;;;;;;;;21.40;99.90;;;;;;5091854;28;19983;-76
2023/08/22 03:44:47;;;;;;;;;;;21.40;99.90;;;;;;5104301;28;19983;-76
2023/08/22 03:47:14;;;;;;;;;;;21.30;99.90;;;;;;5103882;28;19951;-76
2023/08/22 03:49:40;;;;;;;;;;;21.30;99.90;;;;;;5104321;28;19956;-75
2023/08/22 03:52:07;;;;;;;;;;;21.30;99.90;;;;;;5103326;28;20233;-76
2023/08/22 03:54:35;;;;;;;;;;;21.20;99.90;;;;;;5104402;28;19920;-76
2023/08/22 03:57:02;;;;;;;;;;;21.10;99.90;;;;;;5103824;28;19927;-76
2023/08/22 03:59:29;;;;;;;;;;;21.10;99.90;;;;;;5104064;28;19943;-76
2023/08/22 04:01:55;;;;;;;;;;;21.10;99.90;;;;;;5103638;28;19928;-75
2023/08/22 04:04:22;;;;;;;;;;;21.10;99.90;;;;;;5104152;28;19927;-75
2023/08/22 04:06:48;;;;;;;;;;;21.00;99.90;;;;;;5103986;28;19987;-76
2023/08/22 04:09:15;;;;;;;;;;;21.00;99.90;;;;;;5104023;28;19991;-76
2023/08/22 04:11:44;;;;;;;;;;;21.00;99.90;;;;;;5103889;28;20106;-75
2023/08/22 04:14:10;;;;;;;;;;;21.00;99.90;;;;;;5103684;28;19924;-76
2023/08/22 04:16:37;;;;;;;;;;;21.10;99.90;;;;;;5084385;28;19959;-78
2023/08/22 04:19:04;;;;;;;;;;;21.00;99.90;;;;;;5083674;28;20211;-75
2023/08/22 04:21:30;;;;;;;;;;;21.10;99.90;;;;;;5083834;28;19987;-75
2023/08/22 04:23:57;;;;;;;;;;;21.00;99.90;;;;;;5082871;28;19927;-76
2023/08/22 04:26:23;;;;;;;;;;;21.10;99.90;;;;;;5087229;28;19963;-75
2023/08/22 04:28:51;;;;;;;;;;;21.10;99.90;;;;;;5103923;28;19987;-75
2023/08/22 04:31:18;;;;;;;;;;;21.10;99.90;;;;;;5104196;28;20191;-75
2023/08/22 04:33:45;;;;;;;;;;;21.10;99.90;;;;;;5103426;28;19983;-75
2023/08/22 04:36:11;;;;;;;;;;;21.10;99.90;;;;;;5103740;28;20106;-77
2023/08/22 04:38:38;;;;;;;;;;;21.10;99.90;;;;;;5103442;28;19944;-77
2023/08/22 04:41:05;;;;;;;;;;;21.10;99.90;;;;;;5103800;28;19984;-75
2023/08/22 04:43:31;;;;;;;;;;;21.10;99.90;;;;;;5103923;28;20249;-75
2023/08/22 04:46:01;;;;;;;;;;;21.20;99.90;;;;;;5107554;28;19987;-76
2023/08/22 04:48:28;;;;;;;;;;;21.20;99.90;;;;;;5107349;28;19920;-76
2023/08/22 04:50:55;;;;;;;;;;;21.20;99.90;;;;;;5107447;28;19920;-75
2023/08/22 04:53:21;;;;;;;;;;;21.20;99.90;;;;;;5086377;28;19951;-76
2023/08/22 04:55:48;;;;;;;;;;;21.20;99.90;;;;;;5086765;28;19927;-77
2023/08/22 04:58:14;;;;;;;;;;;21.30;99.90;;;;;;5105894;28;19931;-76
2023/08/22 05:00:41;;;;;;;;;;;21.30;99.90;;;;;;5107178;28;20279;-75
2023/08/22 05:03:09;;;;;;;;;;;21.30;99.90;;;;;;5106879;28;19927;-76
2023/08/22 05:05:36;;;;;;;;;;;21.30;99.90;;;;;;5106732;28;19987;-76
2023/08/22 05:08:03;;;;;;;;;;;21.20;99.90;;;;;;5105246;28;20162;-75
2023/08/22 05:10:29;;;;;;;;;;;21.20;99.90;;;;;;5107047;28;19920;-75
2023/08/22 05:12:56;;;;;;;;;;;21.20;99.90;;;;;;5106737;28;19979;-76
2023/08/22 05:15:22;;;;;;;;;;;21.10;99.90;;;;;;5107313;28;19983;-77
2023/08/22 05:17:49;;;;;;;;;;;21.10;99.90;;;;;;5106994;28;19920;-75
2023/08/22 05:20:17;;;;;;;;;;;21.10;99.90;;;;;;5106534;28;19920;-74
2023/08/22 05:22:44;;;;;;;;;;;21.10;99.90;;;;;;5097513;28;19955;-74
2023/08/22 05:25:11;;;;;;;;;;;21.10;99.90;;;;;;5106404;28;19948;-75
2023/08/22 05:27:37;;;;;;;;;;;21.20;99.90;;;;;;5106414;28;19983;-76
2023/08/22 05:30:04;;;;;;;;;;;21.20;99.90;;;;;;5106501;28;20007;-76
2023/08/22 05:32:31;;;;;;;;;;;21.30;99.90;;;;;;5105408;28;20207;-76
2023/08/22 05:34:58;;;;;;;;;;;21.30;99.90;;;;;;5106269;28;20263;-76
2023/08/22 05:37:26;;;;;;;;;;;21.30;99.90;;;;;;5106107;28;20234;-75
2023/08/22 05:39:53;;;;;;;;;;;21.30;99.90;;;;;;5105971;28;20259;-75
2023/08/22 05:42:19;;;;;;;;;;;21.30;99.90;;;;;;5105610;28;19992;-75
2023/08/22 05:44:46;;;;;;;;;;;21.30;99.90;;;;;;5106155;28;20169;-76
2023/08/22 05:47:12;;;;;;;;;;;21.40;99.90;;;;;;5106255;28;19920;-75
2023/08/22 05:49:43;;;;;;;;;;;21.40;99.90;;;;;;5106253;28;19927;-75
2023/08/22 05:52:09;;;;;;;;;;;21.50;99.90;;;;;;5105680;28;20089;-74
2023/08/22 05:54:37;;;;;;;;;;;21.60;99.90;;;;;;5105833;28;19927;-76
2023/08/22 05:57:04;;;;;;;;;;;21.70;99.90;;;;;;5105564;28;20257;-76
2023/08/22 05:59:31;;;;;;;;;;;21.80;99.90;;;;;;5106054;28;20007;-76
2023/08/22 06:01:57;;;;;;;;;;;21.80;99.90;;;;;;5104834;28;20287;-74
2023/08/22 06:04:25;;;;;;;;;;;21.90;99.90;;;;;;5105681;28;19926;-76
2023/08/22 06:06:51;;;;;;;;;;;22.00;99.90;;;;;;5105892;28;19974;-75
2023/08/22 06:09:26;;;;;;;;;;;22.10;99.90;;;;;;5103466;28;19920;-76
2023/08/22 06:11:54;;;;;;;;;;;22.10;99.90;;;;;;5105266;28;19987;-76
2023/08/22 06:14:20;;;;;;;;;;;22.20;99.90;;;;;;5105398;28;19920;-76
2023/08/22 06:16:47;;;;;;;;;;;22.20;99.90;;;;;;5105690;28;19987;-76
2023/08/22 06:19:14;;;;;;;;;;;22.30;99.90;;;;;;5105658;28;20120;-77
2023/08/22 06:21:40;;;;;;;;;;;22.30;99.90;;;;;;5105679;28;19951;-76
2023/08/22 06:24:07;;;;;;;;;;;22.40;99.90;;;;;;5105252;28;19920;-75
2023/08/22 06:26:34;;;;;;;;;;;22.50;99.90;;;;;;5105500;28;19920;-77
2023/08/22 06:29:02;;;;;;;;;;;22.50;99.90;;;;;;5106038;28;19926;-76
2023/08/22 06:31:29;;;;;;;;;;;22.60;99.90;;;;;;5105741;28;20265;-76
2023/08/22 06:33:55;;;;;;;;;;;22.60;99.90;;;;;;5105120;28;19920;-77
2023/08/22 06:36:22;;;;;;;;;;;22.60;99.90;;;;;;5106059;28;19992;-76
2023/08/22 06:38:49;;;;;;;;;;;22.70;99.90;;;;;;5106080;28;19920;-76
2023/08/22 06:41:16;;;;;;;;;;;22.70;99.90;;;;;;5105810;28;19986;-76
2023/08/22 06:43:43;;;;;;;;;;;22.80;99.90;;;;;;5102273;28;19939;-76
2023/08/22 06:46:11;;;;;;;;;;;22.90;99.90;;;;;;5093787;28;19984;-76
2023/08/22 06:48:38;;;;;;;;;;;23.00;99.90;;;;;;5106575;28;19951;-77
2023/08/22 06:51:04;;;;;;;;;;;23.00;99.90;;;;;;5089703;28;19920;-76
2023/08/22 06:53:31;;;;;;;;;;;23.10;99.90;;;;;;5093846;28;19984;-75
2023/08/22 06:55:57;;;;;;;;;;;23.20;99.90;;;;;;5088537;28;19924;-77
2023/08/22 06:58:24;;;;;;;;;;;23.30;99.90;;;;;;5085958;28;20274;-76
2023/08/22 07:00:51;;;;;;;;;;;23.30;99.90;;;;;;5086328;28;19921;-76
2023/08/22 07:03:19;;;;;;;;;;;23.40;99.90;;;;;;5087932;28;19988;-76
2023/08/22 07:05:45;;;;;;;;;;;23.40;99.90;;;;;;5084492;28;19952;-74
2023/08/22 07:08:12;;;;;;;;;;;23.50;99.90;;;;;;5084309;28;20204;-75
2023/08/22 07:10:38;;;;;;;;;;;23.60;99.90;;;;;;5083886;28;19920;-75
2023/08/22 07:13:05;;;;;;;;;;;23.70;99.90;;;;;;5096329;28;20219;-75
2023/08/22 07:15:33;;;;;;;;;;;23.80;99.90;;;;;;5104373;28;19987;-76
2023/08/22 07:18:00;;;;;;;;;;;23.80;99.90;;;;;;5101285;28;19926;-76
2023/08/22 07:20:28;;;;;;;;;;;24.00;99.90;;;;;;5097252;28;20212;-76
2023/08/22 07:22:54;;;;;;;;;;;24.00;99.90;;;;;;5083318;28;19959;-75
2023/08/22 07:25:21;;;;;;;;;;;24.10;99.90;;;;;;5084459;28;19995;-76
2023/08/22 07:27:48;;;;;;;;;;;24.30;99.90;;;;;;5084113;28;20279;-76
2023/08/22 07:30:14;;;;;;;;;;;24.40;99.90;;;;;;5084706;28;19987;-76
2023/08/22 07:32:41;;;;;;;;;;;24.40;99.90;;;;;;5084033;28;19920;-76
2023/08/22 07:35:08;;;;;;;;;;;24.50;99.90;;;;;;5085266;28;19921;-76
2023/08/22 07:37:36;;;;;;;;;;;24.60;99.90;;;;;;5084665;28;19921;-76
2023/08/22 07:40:04;;;;;;;;;;;24.60;99.90;;;;;;5084706;28;20001;-74
2023/08/22 07:42:31;;;;;;;;;;;24.60;99.90;;;;;;5083437;28;19991;-76
2023/08/22 07:44:57;;;;;;;;;;;24.80;99.90;;;;;;5095730;28;19947;-77
2023/08/22 07:47:24;;;;;;;;;;;24.90;99.90;;;;;;5105545;28;19952;-77
2023/08/22 07:49:51;;;;;;;;;;;25.00;99.90;;;;;;5106089;28;19987;-76
2023/08/22 07:52:17;;;;;;;;;;;25.20;99.90;;;;;;5104675;28;19991;-76
2023/08/22 07:54:45;;;;;;;;;;;25.20;99.90;;;;;;5101816;28;20167;-77
2023/08/22 07:57:12;;;;;;;;;;;25.40;99.90;;;;;;5106324;28;19948;-77
2023/08/22 07:59:39;;;;;;;;;;;25.50;99.90;;;;;;5105394;28;19977;-77
2023/08/22 08:02:05;;;;;;;;;;;25.60;99.90;;;;;;5104113;28;19921;-78
2023/08/22 08:04:33;;;;;;;;;;;25.80;99.90;;;;;;5104785;28;19987;-77
2023/08/22 08:06:59;;;;;;;;;;;25.90;99.90;;;;;;5104422;28;20203;-77
2023/08/22 08:09:26;;;;;;;;;;;25.90;99.90;;;;;;5104867;28;19983;-77
2023/08/22 08:11:54;;;;;;;;;;;26.00;99.90;;;;;;5104458;28;20100;-76
2023/08/22 08:14:20;;;;;;;;;;;26.10;99.90;;;;;;5104321;28;19959;-77
2023/08/22 08:16:47;;;;;;;;;;;26.20;99.90;;;;;;5103442;28;19928;-74
2023/08/22 08:19:14;;;;;;;;;;;26.30;99.90;;;;;;5105993;28;19920;-75
2023/08/22 08:21:41;;;;;;;;;;;26.30;99.90;;;;;;5088052;28;19955;-76
2023/08/22 08:24:08;;;;;;;;;;;26.30;99.90;;;;;;5087363;28;19920;-74
2023/08/22 08:26:35;;;;;;;;;;;26.40;99.90;;;;;;5087280;28;19948;-76
2023/08/22 08:29:03;;;;;;;;;;;26.40;99.90;;;;;;5087276;28;20283;-76
2023/08/22 08:31:29;;;;;;;;;;;26.50;99.90;;;;;;5087025;28;19927;-75
2023/08/22 08:33:56;;;;;;;;;;;26.50;99.90;;;;;;5099824;28;20256;-76
2023/08/22 08:36:22;;;;;;;;;;;26.60;99.90;;;;;;5107426;28;19920;-77
2023/08/22 08:38:49;;;;;;;;;;;26.60;99.90;;;;;;5107240;28;20210;-77
2023/08/22 08:41:16;;;;;;;;;;;26.60;99.90;;;;;;5107631;28;19920;-77
2023/08/22 08:43:43;;;;;;;;;;;26.60;99.90;;;;;;5107315;28;19927;-78
2023/08/22 08:46:11;;;;;;;;;;;26.70;99.90;;;;;;5107988;28;19962;-78
2023/08/22 08:48:39;;;;;;;;;;;26.70;99.90;;;;;;5107904;28;20224;-78
2023/08/22 08:51:06;;;;;;;;;;;26.80;99.90;;;;;;5107734;28;20237;-77
2023/08/22 08:53:33;;;;;;;;;;;26.90;99.90;;;;;;5107629;28;19983;-78
2023/08/22 08:56:00;;;;;;;;;;;26.90;99.90;;;;;;5109393;28;19920;-77
2023/08/22 08:58:26;;;;;;;;;;;27.00;99.90;;;;;;5108704;28;19951;-78
2023/08/22 09:00:54;;;;;;;;;;;27.00;99.90;;;;;;5108854;28;19920;-78
2023/08/22 09:03:23;;;;;;;;;;;27.10;99.90;;;;;;5109056;28;19937;-78
2023/08/22 09:05:49;;;;;;;;;;;27.20;99.90;;;;;;5109436;28;19982;-78
2023/08/22 09:08:16;;;;;;;;;;;27.30;99.90;;;;;;5109597;28;19955;-78
2023/08/22 09:10:48;;;;;;;;;;;27.20;99.90;;;;;;5100332;28;19955;-77
2023/08/22 09:13:15;;;;;;;;;;;27.20;99.90;;;;;;5090740;28;19952;-78
2023/08/22 09:15:42;;;;;;;;;;;27.20;99.90;;;;;;5111117;28;19920;-78
2023/08/22 09:18:13;;;;;;;;;;;27.30;99.90;;;;;;5100386;28;19963;-77
2023/08/22 09:20:45;;;;;;;;;;;27.40;99.90;;;;;;5093421;28;19955;-80
2023/08/22 09:23:19;;;;;;;;;;;27.50;99.90;;;;;;5109118;28;19920;-79
2023/08/22 09:25:46;;;;;;;;;;;27.60;99.90;;;;;;5108076;28;19958;-77
2023/08/22 09:28:12;;;;;;;;;;;27.70;99.90;;;;;;5108091;28;19951;-79
2023/08/22 09:30:46;;;;;;;;;;;27.70;99.90;;;;;;5112895;28;19920;-75
2023/08/22 09:33:13;;;;;;;;;;;27.70;99.90;;;;;;5105960;28;19958;-76
2023/08/22 09:35:40;;;;;;;;;;;27.80;99.90;;;;;;5106532;28;19987;-77
2023/08/22 09:38:08;;;;;;;;;;;27.80;99.90;;;;;;5106594;28;19955;-76
2023/08/22 09:40:35;;;;;;;;;;;27.90;99.90;;;;;;5106210;28;19924;-77
2023/08/22 09:43:02;;;;;;;;;;;28.00;99.90;;;;;;5106177;28;20174;-74
2023/08/22 09:45:31;;;;;;;;;;;28.10;99.90;;;;;;5106657;28;19920;-77
2023/08/22 09:48:01;;;;;;;;;;;28.10;99.90;;;;;;5105163;28;19920;-75
2023/08/22 09:50:31;;;;;;;;;;;28.10;99.90;;;;;;5106488;28;19920;-77
2023/08/22 09:59:11;;;;;;;;;;;28.20;99.90;;;;;;5098410;28;20016;-75
2023/08/22 10:01:39;;;;;;;;;;;28.30;99.90;;;;;;5105816;28;20220;-77
2023/08/22 10:04:06;;;;;;;;;;;28.40;99.90;;;;;;5105472;28;19927;-75
2023/08/22 10:06:34;;;;;;;;;;;28.60;99.90;;;;;;5105705;28;19956;-75
2023/08/22 10:09:10;;;;;;;;;;;28.60;99.90;;;;;;5105559;28;20154;-76
2023/08/22 10:11:38;;;;;;;;;;;28.80;99.90;;;;;;5105157;28;19928;-77
2023/08/22 10:14:16;;;;;;;;;;;28.80;99.90;;;;;;5105227;28;19920;-76
2023/08/22 10:16:49;;;;;;;;;;;29.00;99.90;;;;;;5105197;28;19923;-76
2023/08/22 10:19:20;;;;;;;;;;;29.10;99.90;;;;;;5105463;28;19920;-76
2023/08/22 10:21:50;;;;;;;;;;;29.10;99.90;;;;;;5105648;28;19932;-76
2023/08/22 10:24:22;;;;;;;;;;;29.30;99.90;;;;;;5105019;28;20211;-75
2023/08/22 10:27:13;;;;;;;;;;;29.30;99.90;;;;;;5105268;28;19955;-75
2023/08/22 10:29:45;;;;;;;;;;;29.40;99.90;;;;;;5105365;28;20162;-77
2023/08/22 10:32:23;;;;;;;;;;;29.40;99.90;;;;;;5104629;28;19935;-77
2023/08/22 10:35:16;;;;;;;;;;;29.60;99.90;;;;;;5105378;28;19927;-77
2023/08/22 10:37:45;;;;;;;;;;;29.80;99.90;;;;;;5068791;28;19920;-77
2023/08/22 10:40:19;;;;;;;;;;;30.00;99.90;;;;;;5086327;28;19928;-77
2023/08/22 10:42:50;;;;;;;;;;;30.10;99.90;;;;;;5099241;28;19955;-76
2023/08/22 10:45:17;;;;;;;;;;;30.10;99.90;;;;;;5104844;28;20247;-76
2023/08/22 10:47:48;;;;;;;;;;;30.30;99.90;;;;;;5105582;28;19920;-78
2023/08/22 10:50:15;;;;;;;;;;;30.30;99.90;;;;;;5105007;28;19955;-77
2023/08/22 10:52:43;;;;;;;;;;;30.30;99.90;;;;;;5097515;28;19988;-76
2023/08/22 10:55:12;;;;;;;;;;;30.30;99.90;;;;;;5104909;28;20271;-74
2023/08/22 10:57:39;;;;;;;;;;;30.40;99.90;;;;;;5104385;28;19959;-75
2023/08/22 11:00:11;;;;;;;;;;;30.40;99.90;;;;;;5104556;28;19970;-74
2023/08/22 11:02:37;;;;;;;;;;;30.50;99.90;;;;;;5103518;28;19943;-73
2023/08/22 11:05:07;;;;;;;;;;;30.50;99.90;;;;;;5104070;28;19979;-74
2023/08/22 11:07:35;;;;;;;;;;;30.60;99.90;;;;;;5102453;28;20215;-75
2023/08/22 11:10:01;;;;;;;;;;;30.70;99.90;;;;;;5101658;28;19920;-76
2023/08/22 11:12:28;;;;;;;;;;;30.70;99.90;;;;;;5103848;28;19952;-76
2023/08/22 11:14:57;;;;;;;;;;;30.70;99.90;;;;;;5104228;28;19983;-76
2023/08/22 11:17:32;;;;;;;;;;;30.60;99.90;;;;;;5102085;28;19920;-75
2023/08/22 11:19:58;;;;;;;;;;;30.60;99.90;;;;;;5104339;28;19947;-76
2023/08/22 11:22:26;;;;;;;;;;;30.80;99.90;;;;;;5104146;28;20114;-76
2023/08/22 11:24:53;;;;;;;;;;;30.80;99.90;;;;;;5103558;28;19983;-76
2023/08/22 11:27:20;;;;;;;;;;;30.70;99.90;;;;;;5104285;28;19920;-76
2023/08/22 11:29:49;;;;;;;;;;;30.60;99.90;;;;;;5124736;28;19920;-76
2023/08/22 11:32:19;;;;;;;;;;;30.40;99.90;;;;;;5124264;27;20265;-76
2023/08/22 11:34:46;;;;;;;;;;;30.40;99.90;;;;;;5116803;27;19923;-77
2023/08/22 11:37:13;;;;;;;;;;;30.50;99.90;;;;;;5121046;28;20211;-75
2023/08/22 11:39:41;;;;;;;;;;;30.60;99.90;;;;;;5126474;27;19958;-76
2023/08/22 11:42:07;;;;;;;;;;;30.80;99.90;;;;;;5123723;28;19955;-76
2023/08/22 11:44:34;;;;;;;;;;;30.80;99.90;;;;;;5124466;28;19951;-76
2023/08/22 11:47:00;;;;;;;;;;;30.80;99.90;;;;;;5122674;28;20110;-76
2023/08/22 11:49:27;;;;;;;;;;;30.80;99.90;;;;;;5106678;28;19991;-75
2023/08/22 11:51:54;;;;;;;;;;;30.90;99.90;;;;;;5123823;28;19991;-76
2023/08/22 11:54:24;;;;;;;;;;;31.00;99.90;;;;;;5119437;28;19991;-76
2023/08/22 11:56:54;;;;;;;;;;;31.10;99.90;;;;;;5123511;28;19986;-76
2023/08/22 11:59:21;;;;;;;;;;;31.10;99.90;;;;;;5124355;28;19920;-76
2023/08/22 12:01:49;;;;;;;;;;;31.20;99.90;;;;;;5124031;28;20392;-77
2023/08/22 12:04:16;;;;;;;;;;;31.30;99.90;;;;;;5124051;28;20139;-78
2023/08/22 12:06:43;;;;;;;;;;;31.40;99.90;;;;;;5108777;28;20084;-77
2023/08/22 12:09:14;;;;;;;;;;;31.20;99.90;;;;;;5124368;28;19982;-76
2023/08/22 12:11:41;;;;;;;;;;;31.30;99.90;;;;;;5124221;28;19920;-77
2023/08/22 12:14:09;;;;;;;;;;;31.30;99.90;;;;;;5123454;28;19920;-77
2023/08/22 12:16:36;;;;;;;;;;;31.20;99.90;;;;;;5124330;28;19970;-77
2023/08/22 12:19:10;;;;;;;;;;;31.10;99.90;;;;;;5124394;28;19951;-76
2023/08/22 12:21:36;;;;;;;;;;;31.00;99.90;;;;;;5123835;28;19927;-75
2023/08/22 12:24:03;;;;;;;;;;;31.10;99.90;;;;;;5123787;28;19955;-77
2023/08/22 12:26:30;;;;;;;;;;;31.20;99.90;;;;;;5124259;28;19926;-77
2023/08/22 12:28:57;;;;;;;;;;;31.10;99.90;;;;;;5124184;28;20116;-76
2023/08/22 12:31:28;;;;;;;;;;;31.10;99.90;;;;;;5123920;28;19955;-76
2023/08/22 12:33:54;;;;;;;;;;;31.30;99.90;;;;;;5118207;28;19927;-77
2023/08/22 12:36:21;;;;;;;;;;;31.50;99.90;;;;;;5120851;28;19979;-77
2023/08/22 12:38:48;;;;;;;;;;;31.90;99.90;;;;;;5123465;28;20140;-76
2023/08/22 12:41:14;;;;;;;;;;;32.20;99.90;;;;;;5123896;28;19924;-77
2023/08/22 12:43:41;;;;;;;;;;;32.40;99.90;;;;;;5123624;28;19919;-77
2023/08/22 12:46:08;;;;;;;;;;;32.50;99.90;;;;;;5123744;28;19983;-77
2023/08/22 12:48:36;;;;;;;;;;;32.50;99.90;;;;;;5123727;28;19926;-76
2023/08/22 12:51:03;;;;;;;;;;;32.30;99.90;;;;;;5123633;28;19983;-77
2023/08/22 12:53:30;;;;;;;;;;;32.20;99.90;;;;;;5123117;28;19955;-76
2023/08/22 12:55:56;;;;;;;;;;;32.30;99.90;;;;;;5123579;28;19920;-77
2023/08/22 12:58:23;;;;;;;;;;;32.40;99.90;;;;;;5123996;28;19982;-76
2023/08/22 13:00:50;;;;;;;;;;;32.50;99.90;;;;;;5123332;28;20247;-76
2023/08/22 13:03:16;;;;;;;;;;;32.40;99.90;;;;;;5123148;28;19987;-76
2023/08/22 13:05:44;;;;;;;;;;;32.30;99.90;;;;;;5126136;28;19934;-76
2023/08/22 13:08:11;;;;;;;;;;;32.30;99.90;;;;;;5127608;28;19957;-76
2023/08/22 13:10:38;;;;;;;;;;;32.40;99.90;;;;;;5127481;28;20114;-76
2023/08/22 13:13:04;;;;;;;;;;;32.60;99.90;;;;;;5118433;28;19920;-76
2023/08/22 13:15:31;;;;;;;;;;;32.80;99.90;;;;;;5127194;28;19982;-77
2023/08/22 13:17:58;;;;;;;;;;;32.90;99.90;;;;;;5127189;28;20282;-76
2023/08/22 13:20:25;;;;;;;;;;;32.90;99.90;;;;;;5127066;28;19919;-77
2023/08/22 13:22:52;;;;;;;;;;;33.00;99.90;;;;;;5126600;28;20175;-76
2023/08/22 13:25:19;;;;;;;;;;;33.00;99.90;;;;;;5126909;28;20253;-76
2023/08/22 13:27:46;;;;;;;;;;;32.80;99.90;;;;;;5126450;28;19983;-76
2023/08/22 13:30:13;;;;;;;;;;;32.60;99.90;;;;;;5126841;28;20219;-76
2023/08/22 13:32:39;;;;;;;;;;;32.60;99.90;;;;;;5126353;28;19920;-76
2023/08/22 13:35:08;;;;;;;;;;;32.70;99.90;;;;;;5126658;28;19970;-76
2023/08/22 13:37:35;;;;;;;;;;;33.00;99.90;;;;;;5126805;28;19919;-76
2023/08/22 13:40:05;;;;;;;;;;;32.90;99.90;;;;;;5126947;28;19954;-76
2023/08/22 13:42:31;;;;;;;;;;;33.00;99.90;;;;;;5125484;28;19920;-76
2023/08/22 13:44:58;;;;;;;;;;;33.20;99.90;;;;;;5122787;28;19979;-76
2023/08/22 13:47:25;;;;;;;;;;;33.10;99.90;;;;;;5114646;28;19955;-75
2023/08/22 13:49:52;;;;;;;;;;;33.00;99.90;;;;;;5126096;28;19965;-74
2023/08/22 13:52:19;;;;;;;;;;;32.80;99.90;;;;;;5125953;28;19983;-74
2023/08/22 13:54:45;;;;;;;;;;;32.90;99.90;;;;;;5126376;28;19990;-74
2023/08/22 13:57:13;;;;;;;;;;;32.80;99.90;;;;;;5125838;28;19919;-73
2023/08/22 13:59:41;;;;;;;;;;;32.50;99.90;;;;;;5126045;28;20145;-76
2023/08/22 14:02:07;;;;;;;;;;;32.40;99.90;;;;;;5125579;28;19919;-75
2023/08/22 14:04:34;;;;;;;;;;;32.40;99.90;;;;;;5125836;28;19951;-76
2023/08/22 14:07:00;;;;;;;;;;;32.70;99.90;;;;;;5126114;28;19982;-76
2023/08/22 14:09:27;;;;;;;;;;;32.90;99.90;;;;;;5119651;28;20242;-75
2023/08/22 14:11:54;;;;;;;;;;;32.90;99.90;;;;;;5122165;28;19938;-75
2023/08/22 14:14:22;;;;;;;;;;;32.80;99.90;;;;;;5116571;28;20116;-76
2023/08/22 14:16:49;;;;;;;;;;;32.80;99.90;;;;;;5123985;28;20164;-77
2023/08/22 14:19:16;;;;;;;;;;;32.90;99.90;;;;;;5125382;28;20253;-76
2023/08/22 14:21:42;;;;;;;;;;;32.90;99.90;;;;;;5125659;28;19986;-76
2023/08/22 14:24:09;;;;;;;;;;;33.00;99.90;;;;;;5125201;28;19955;-77